createdAt,value
2019-03-26T00:01:49.660Z,5.90
2019-03-26T00:04:18.178Z,6.00
2019-03-26T00:06:46.675Z,6.00
2019-03-26T00:09:15.227Z,6.00
2019-03-26T00:11:43.668Z,6.00
2019-03-26T00:14:12.199Z,6.00
2019-03-26T00:16:40.710Z,6.00
2019-03-26T00:19:09.269Z,6.00
2019-03-26T00:21:37.790Z,6.00
2019-03-26T00:24:06.303Z,6.00
2019-03-26T00:26:34.746Z,6.00
2019-03-26T00:29:03.435Z,6.00
2019-03-26T00:31:31.867Z,6.00
2019-03-26T00:34:00.409Z,6.00
2019-03-26T00:36:28.877Z,6.00
2019-03-26T00:38:57.323Z,6.00
2019-03-26T00:41:25.877Z,6.00
2019-03-26T00:43:54.408Z,6.00
2019-03-26T00:46:22.920Z,5.90
2019-03-26T00:48:51.489Z,5.80
2019-03-26T00:51:19.946Z,5.80
2019-03-26T00:53:48.384Z,5.80
2019-03-26T00:56:16.842Z,5.70
2019-03-26T00:58:45.510Z,5.60
2019-03-26T01:01:14.207Z,5.60
2019-03-26T01:03:43.020Z,5.50
2019-03-26T01:06:11.561Z,5.50
2019-03-26T01:08:40.020Z,5.50
2019-03-26T01:11:08.511Z,5.40
2019-03-26T01:13:37.091Z,5.40
2019-03-26T01:16:05.625Z,5.30
2019-03-26T01:18:34.064Z,5.30
2019-03-26T01:21:02.666Z,5.20
2019-03-26T01:23:31.275Z,5.10
2019-03-26T01:25:59.711Z,5.10
2019-03-26T01:28:28.176Z,5.10
2019-03-26T01:30:56.674Z,5.00
2019-03-26T01:33:25.220Z,5.00
2019-03-26T01:35:53.647Z,5.10
2019-03-26T01:38:22.126Z,5.10
2019-03-26T01:40:50.583Z,5.10
2019-03-26T01:43:19.211Z,5.10
2019-03-26T01:45:47.726Z,5.00
2019-03-26T01:48:16.211Z,5.00
2019-03-26T01:50:44.706Z,5.00
2019-03-26T01:53:13.182Z,5.00
2019-03-26T01:55:41.617Z,5.10
2019-03-26T01:58:10.079Z,5.00
2019-03-26T02:00:38.855Z,5.10
2019-03-26T02:03:07.392Z,5.00
2019-03-26T02:05:35.888Z,5.00
2019-03-26T02:08:04.483Z,4.90
2019-03-26T02:10:32.973Z,5.00
2019-03-26T02:13:01.421Z,5.00
2019-03-26T02:15:32.937Z,5.00
2019-03-26T02:18:01.898Z,5.00
2019-03-26T02:20:30.824Z,5.10
2019-03-26T02:22:59.550Z,5.10
2019-03-26T02:25:28.090Z,5.20
2019-03-26T02:27:56.531Z,5.30
2019-03-26T02:30:25.019Z,5.40
2019-03-26T02:32:53.590Z,5.50
2019-03-26T02:35:22.074Z,5.50
2019-03-26T02:37:50.510Z,5.50
2019-03-26T02:40:19.264Z,5.50
2019-03-26T02:42:47.794Z,5.50
2019-03-26T02:45:16.317Z,5.40
2019-03-26T02:47:45.019Z,5.40
2019-03-26T02:50:13.899Z,5.40
2019-03-26T02:52:42.341Z,5.40
2019-03-26T02:55:10.960Z,5.40
2019-03-26T02:57:39.399Z,5.30
2019-03-26T03:00:09.365Z,5.30
2019-03-26T03:02:37.865Z,5.40
2019-03-26T03:05:06.538Z,5.30
2019-03-26T03:07:35.132Z,5.30
2019-03-26T03:10:07.342Z,5.30
2019-03-26T03:12:35.851Z,5.20
2019-03-26T03:15:06.178Z,5.20
2019-03-26T03:17:34.689Z,5.10
2019-03-26T03:20:03.878Z,5.10
2019-03-26T03:22:32.410Z,5.00
2019-03-26T03:25:00.864Z,4.80
2019-03-26T03:27:29.330Z,4.80
2019-03-26T03:29:57.844Z,4.70
2019-03-26T03:32:26.372Z,4.70
2019-03-26T03:34:54.838Z,4.70
2019-03-26T03:37:23.299Z,4.80
2019-03-26T03:39:51.811Z,4.80
2019-03-26T03:42:20.373Z,4.90
2019-03-26T03:44:48.786Z,4.90
2019-03-26T03:47:18.879Z,5.00
2019-03-26T03:49:47.760Z,5.10
2019-03-26T03:52:17.670Z,5.10
2019-03-26T03:54:47.999Z,5.10
2019-03-26T03:57:18.177Z,5.10
2019-03-26T03:59:47.440Z,5.20
2019-03-26T04:02:16.352Z,5.20
2019-03-26T04:04:44.931Z,5.20
2019-03-26T04:07:13.519Z,5.20
2019-03-26T04:09:41.962Z,5.30
2019-03-26T04:12:10.499Z,5.30
2019-03-26T04:14:38.946Z,5.30
2019-03-26T04:17:07.566Z,5.40
2019-03-26T04:19:36.005Z,5.50
2019-03-26T04:22:04.431Z,5.50
2019-03-26T04:24:32.901Z,5.60
2019-03-26T04:27:01.509Z,5.60
2019-03-26T04:29:30.037Z,5.60
2019-03-26T04:31:58.621Z,5.70
2019-03-26T04:34:27.141Z,5.70
2019-03-26T04:36:55.584Z,5.70
2019-03-26T04:39:24.088Z,5.70
2019-03-26T04:41:52.517Z,5.70
2019-03-26T04:44:21.049Z,5.70
2019-03-26T04:46:49.473Z,5.70
2019-03-26T04:49:17.946Z,5.70
2019-03-26T04:51:46.399Z,5.70
2019-03-26T04:54:14.905Z,5.70
2019-03-26T04:56:43.459Z,5.70
2019-03-26T04:59:11.963Z,5.80
2019-03-26T05:01:40.381Z,5.80
2019-03-26T05:04:08.855Z,5.80
2019-03-26T05:06:38.407Z,5.80
2019-03-26T05:09:07.312Z,5.80
2019-03-26T05:11:35.871Z,5.80
2019-03-26T05:14:04.313Z,5.80
2019-03-26T05:16:32.978Z,5.80
2019-03-26T05:19:01.485Z,5.80
2019-03-26T05:21:30.045Z,5.80
2019-03-26T05:23:58.483Z,5.80
2019-03-26T05:26:26.983Z,5.70
2019-03-26T05:28:55.419Z,5.70
2019-03-26T05:31:24.230Z,5.70
2019-03-26T05:33:52.814Z,5.70
2019-03-26T05:36:21.370Z,5.70
2019-03-26T05:38:49.810Z,5.70
2019-03-26T05:41:18.288Z,5.70
2019-03-26T05:43:46.871Z,5.60
2019-03-26T05:46:15.325Z,5.50
2019-03-26T05:48:43.772Z,5.50
2019-03-26T05:51:12.226Z,5.50
2019-03-26T05:53:40.736Z,5.60
2019-03-26T05:56:09.208Z,5.30
2019-03-26T05:58:37.646Z,5.30
2019-03-26T06:01:06.123Z,5.40
2019-03-26T06:03:34.559Z,5.50
2019-03-26T06:06:03.231Z,5.50
2019-03-26T06:08:31.927Z,5.60
2019-03-26T06:11:00.470Z,5.60
2019-03-26T06:13:28.919Z,5.40
2019-03-26T06:15:57.411Z,5.50
2019-03-26T06:18:26.057Z,5.50
2019-03-26T06:20:54.593Z,5.60
2019-03-26T06:23:23.053Z,5.70
2019-03-26T06:25:51.690Z,5.80
2019-03-26T06:28:20.248Z,5.90
2019-03-26T06:30:48.766Z,6.10
2019-03-26T06:33:17.353Z,6.20
2019-03-26T06:35:45.817Z,6.30
2019-03-26T06:38:14.386Z,6.50
2019-03-26T06:40:42.988Z,6.70
2019-03-26T06:43:11.601Z,6.90
2019-03-26T06:45:40.055Z,7.00
2019-03-26T06:48:08.617Z,7.10
2019-03-26T06:50:37.434Z,7.20
2019-03-26T06:53:05.968Z,7.30
2019-03-26T06:55:34.418Z,7.40
2019-03-26T06:58:03.524Z,7.50
2019-03-26T07:00:33.610Z,7.60
2019-03-26T07:03:06.521Z,7.80
2019-03-26T07:05:35.057Z,7.80
2019-03-26T07:08:03.649Z,7.60
2019-03-26T07:10:32.254Z,7.70
2019-03-26T07:13:00.850Z,7.70
2019-03-26T07:15:29.591Z,7.50
2019-03-26T07:17:58.177Z,7.40
2019-03-26T07:20:26.731Z,7.20
2019-03-26T07:22:55.310Z,7.00
2019-03-26T07:25:23.909Z,7.00
2019-03-26T07:27:52.355Z,7.00
2019-03-26T07:30:38.474Z,7.10
2019-03-26T07:33:07.639Z,7.00
2019-03-26T07:35:36.221Z,7.20
2019-03-26T07:38:05.007Z,7.40
2019-03-26T07:40:33.525Z,7.60
2019-03-26T07:43:02.051Z,7.60
2019-03-26T07:45:30.582Z,7.80
2019-03-26T07:47:59.027Z,7.90
2019-03-26T07:50:27.638Z,8.00
2019-03-26T07:52:56.155Z,8.00
2019-03-26T07:55:24.625Z,7.70
2019-03-26T07:57:53.162Z,7.80
2019-03-26T08:00:24.686Z,8.00
2019-03-26T08:02:53.223Z,8.20
2019-03-26T08:05:29.511Z,8.40
2019-03-26T08:07:58.340Z,8.60
2019-03-26T08:10:22.231Z,8.80
2019-03-26T08:12:50.778Z,9.00
2019-03-26T08:15:20.367Z,9.20
2019-03-26T08:17:48.963Z,8.90
2019-03-26T08:20:17.487Z,8.60
2019-03-26T08:22:46.015Z,8.50
2019-03-26T08:25:14.660Z,8.40
2019-03-26T08:27:43.246Z,8.50
2019-03-26T08:30:12.075Z,8.60
2019-03-26T08:32:40.559Z,8.80
2019-03-26T08:35:09.377Z,8.90
2019-03-26T08:37:38.034Z,8.90
2019-03-26T08:40:08.240Z,8.80
2019-03-26T08:42:36.883Z,8.90
2019-03-26T08:45:07.468Z,8.70
2019-03-26T08:47:36.371Z,8.80
2019-03-26T08:50:06.831Z,8.80
2019-03-26T08:52:35.310Z,8.90
2019-03-26T08:55:05.299Z,8.80
2019-03-26T08:57:33.765Z,8.70
2019-03-26T09:00:02.224Z,8.50
2019-03-26T09:02:30.678Z,8.70
2019-03-26T09:04:59.206Z,8.80
2019-03-26T09:07:27.738Z,8.80
2019-03-26T09:09:56.483Z,8.90
2019-03-26T09:12:25.014Z,9.10
2019-03-26T09:14:53.497Z,9.10
2019-03-26T09:17:23.670Z,9.10
2019-03-26T09:19:52.397Z,9.10
2019-03-26T09:22:21.029Z,9.00
2019-03-26T09:24:49.486Z,8.80
2019-03-26T09:27:18.138Z,8.80
2019-03-26T09:29:46.614Z,8.70
2019-03-26T09:32:15.068Z,8.80
2019-03-26T09:34:43.602Z,8.80
2019-03-26T09:37:12.118Z,9.10
2019-03-26T09:39:40.767Z,9.30
2019-03-26T09:42:09.283Z,9.80
2019-03-26T09:44:37.915Z,10.10
2019-03-26T09:47:16.048Z,10.40
2019-03-26T09:49:36.647Z,10.40
2019-03-26T09:52:05.191Z,10.50
2019-03-26T09:54:33.788Z,10.40
2019-03-26T09:57:02.305Z,10.20
2019-03-26T09:59:30.759Z,10.10
2019-03-26T10:01:59.219Z,9.70
2019-03-26T10:04:27.752Z,9.60
2019-03-26T10:06:56.337Z,9.40
2019-03-26T10:09:24.776Z,9.30
2019-03-26T10:11:53.351Z,9.00
2019-03-26T10:14:21.951Z,9.00
2019-03-26T10:16:50.425Z,8.90
2019-03-26T10:19:18.873Z,8.80
2019-03-26T10:21:47.438Z,8.80
2019-03-26T10:24:15.967Z,8.90
2019-03-26T10:26:44.433Z,8.90
2019-03-26T10:29:24.171Z,8.90
2019-03-26T10:31:43.141Z,9.00
2019-03-26T10:34:11.736Z,9.10
2019-03-26T10:36:41.705Z,9.20
2019-03-26T10:39:10.385Z,9.30
2019-03-26T10:41:38.824Z,9.40
2019-03-26T10:44:07.340Z,9.50
2019-03-26T10:46:35.831Z,9.70
2019-03-26T10:49:04.455Z,9.70
2019-03-26T10:51:33.881Z,9.80
2019-03-26T10:54:02.439Z,9.80
2019-03-26T10:56:32.652Z,9.80
2019-03-26T10:59:04.037Z,9.80
2019-03-26T11:01:31.570Z,9.90
2019-03-26T11:04:00.147Z,9.90
2019-03-26T11:06:28.629Z,9.80
2019-03-26T11:09:01.064Z,9.70
2019-03-26T11:11:29.528Z,9.90
2019-03-26T11:13:58.868Z,9.90
2019-03-26T11:16:27.768Z,10.00
2019-03-26T11:18:56.230Z,10.00
2019-03-26T11:21:24.718Z,9.90
2019-03-26T11:23:53.547Z,10.00
2019-03-26T11:26:22.071Z,9.80
2019-03-26T11:28:50.714Z,10.00
2019-03-26T11:31:19.236Z,10.00
2019-03-26T11:33:47.699Z,9.90
2019-03-26T11:36:16.365Z,9.90
2019-03-26T11:38:44.999Z,9.80
2019-03-26T11:41:13.510Z,10.00
2019-03-26T11:43:42.128Z,10.00
2019-03-26T11:46:10.714Z,9.90
2019-03-26T11:48:39.180Z,9.90
2019-03-26T11:51:07.762Z,9.90
2019-03-26T11:53:36.381Z,10.10
2019-03-26T11:56:04.901Z,10.30
2019-03-26T11:58:33.394Z,10.60
2019-03-26T12:01:01.866Z,10.70
2019-03-26T12:03:30.423Z,10.70
2019-03-26T12:05:58.951Z,10.60
2019-03-26T12:08:27.486Z,10.30
2019-03-26T12:10:56.006Z,10.50
2019-03-26T12:13:24.471Z,10.50
2019-03-26T12:15:52.996Z,10.50
2019-03-26T12:18:21.652Z,10.70
2019-03-26T12:20:50.217Z,10.70
2019-03-26T12:23:18.962Z,10.60
2019-03-26T12:25:47.524Z,10.60
2019-03-26T12:28:15.974Z,10.60
2019-03-26T12:30:44.653Z,10.80
2019-03-26T12:33:13.209Z,11.10
2019-03-26T12:35:41.651Z,11.40
2019-03-26T12:38:18.238Z,11.70
2019-03-26T12:40:47.151Z,11.70
2019-03-26T12:43:16.888Z,11.90
2019-03-26T12:45:45.505Z,11.80
2019-03-26T12:48:14.108Z,12.00
2019-03-26T12:50:42.731Z,12.00
2019-03-26T12:53:12.723Z,12.10
2019-03-26T12:55:41.488Z,12.10
2019-03-26T12:58:09.928Z,12.10
2019-03-26T13:00:38.509Z,12.10
2019-03-26T13:03:06.995Z,12.00
2019-03-26T13:05:35.623Z,12.00
2019-03-26T13:08:04.160Z,12.10
2019-03-26T13:10:32.664Z,12.00
2019-03-26T13:13:01.139Z,12.00
2019-03-26T13:15:29.594Z,11.50
2019-03-26T13:17:58.429Z,11.40
2019-03-26T13:20:26.893Z,11.40
2019-03-26T13:22:55.515Z,11.40
2019-03-26T13:25:23.973Z,11.10
2019-03-26T13:27:52.580Z,11.10
2019-03-26T13:30:21.540Z,11.30
2019-03-26T13:32:50.362Z,11.40
2019-03-26T13:35:19.002Z,11.60
2019-03-26T13:37:47.546Z,11.80
2019-03-26T13:40:26.484Z,11.80
2019-03-26T13:42:46.669Z,12.00
2019-03-26T13:45:16.078Z,12.10
2019-03-26T13:47:47.639Z,12.20
2019-03-26T13:50:16.512Z,12.40
2019-03-26T13:52:44.987Z,12.60
2019-03-26T13:55:13.787Z,12.80
2019-03-26T13:57:42.251Z,12.80
2019-03-26T14:00:11.671Z,12.90
2019-03-26T14:02:40.183Z,12.50
2019-03-26T14:05:23.275Z,12.40
2019-03-26T14:07:51.866Z,12.30
2019-03-26T14:10:20.437Z,12.30
2019-03-26T14:12:48.953Z,12.30
2019-03-26T14:15:17.506Z,12.30
2019-03-26T14:17:46.070Z,12.20
2019-03-26T14:20:15.285Z,12.20
2019-03-26T14:22:43.803Z,12.10
2019-03-26T14:25:12.419Z,12.20
2019-03-26T14:27:41.005Z,12.20
2019-03-26T14:30:14.645Z,12.30
2019-03-26T14:32:46.353Z,12.20
2019-03-26T14:35:14.979Z,12.00
2019-03-26T14:37:51.164Z,11.90
2019-03-26T14:40:14.027Z,11.80
2019-03-26T14:42:42.540Z,11.50
2019-03-26T14:45:11.382Z,11.70
2019-03-26T14:47:39.954Z,11.70
2019-03-26T14:50:09.140Z,11.70
2019-03-26T14:52:37.589Z,11.50
2019-03-26T14:55:07.918Z,11.60
2019-03-26T14:57:36.630Z,11.80
2019-03-26T15:00:07.465Z,11.90
2019-03-26T15:02:35.967Z,11.80
2019-03-26T15:05:06.375Z,11.70
2019-03-26T15:07:34.861Z,11.50
2019-03-26T15:10:05.373Z,11.50
2019-03-26T15:12:33.937Z,11.60
2019-03-26T15:15:02.455Z,11.70
2019-03-26T15:17:30.945Z,11.80
2019-03-26T15:19:59.405Z,11.80
2019-03-26T15:22:27.906Z,11.70
2019-03-26T15:24:59.363Z,11.90
2019-03-26T15:27:26.630Z,12.10
2019-03-26T15:29:55.170Z,12.20
2019-03-26T15:32:23.733Z,12.50
2019-03-26T15:34:52.311Z,12.30
2019-03-26T15:37:20.755Z,11.90
2019-03-26T15:39:49.294Z,11.40
2019-03-26T15:42:17.774Z,11.00
2019-03-26T15:44:46.299Z,10.90
2019-03-26T15:47:14.791Z,10.80
2019-03-26T15:49:43.238Z,10.70
2019-03-26T15:52:11.729Z,10.70
2019-03-26T15:54:40.238Z,10.60
2019-03-26T15:57:08.715Z,10.60
2019-03-26T15:59:37.174Z,10.50
2019-03-26T16:02:05.643Z,10.60
2019-03-26T16:04:34.166Z,10.60
2019-03-26T16:07:02.609Z,10.60
2019-03-26T16:09:31.116Z,10.60
2019-03-26T16:11:59.617Z,10.50
2019-03-26T16:14:28.367Z,10.50
2019-03-26T16:16:57.171Z,10.40
2019-03-26T16:19:32.039Z,10.40
2019-03-26T16:21:55.968Z,10.30
2019-03-26T16:24:24.479Z,10.20
2019-03-26T16:26:53.021Z,10.10
2019-03-26T16:29:21.587Z,10.00
2019-03-26T16:31:50.081Z,10.10
2019-03-26T16:34:18.620Z,10.10
2019-03-26T16:36:58.886Z,10.20
2019-03-26T16:39:17.610Z,10.20
2019-03-26T16:41:49.289Z,10.10
2019-03-26T16:44:16.255Z,10.20
2019-03-26T16:46:44.846Z,10.20
2019-03-26T16:49:13.399Z,10.20
2019-03-26T16:51:41.840Z,10.10
2019-03-26T16:54:10.339Z,10.10
2019-03-26T16:56:38.864Z,10.00
2019-03-26T16:59:07.474Z,10.00
2019-03-26T17:01:36.028Z,10.00
2019-03-26T17:04:04.748Z,10.00
2019-03-26T17:06:33.250Z,10.00
2019-03-26T17:09:01.880Z,10.00
2019-03-26T17:11:30.431Z,10.00
2019-03-26T17:13:58.881Z,10.00
2019-03-26T17:16:27.434Z,10.00
2019-03-26T17:18:55.902Z,9.90
2019-03-26T17:21:24.556Z,9.90
2019-03-26T17:23:53.009Z,9.90
2019-03-26T17:26:22.881Z,9.80
2019-03-26T17:28:51.414Z,9.90
2019-03-26T17:31:19.901Z,9.80
2019-03-26T17:33:48.366Z,9.80
2019-03-26T17:36:16.926Z,9.80
2019-03-26T17:38:45.386Z,9.70
2019-03-26T17:41:13.895Z,9.70
2019-03-26T17:43:42.346Z,9.60
2019-03-26T17:46:10.946Z,9.60
2019-03-26T17:48:39.435Z,9.60
2019-03-26T17:51:07.918Z,9.50
2019-03-26T17:53:36.599Z,9.50
2019-03-26T17:56:05.273Z,9.40
2019-03-26T17:58:33.801Z,9.40
2019-03-26T18:01:02.367Z,9.30
2019-03-26T18:03:31.390Z,9.30
2019-03-26T18:05:59.950Z,9.30
2019-03-26T18:08:28.394Z,9.30
2019-03-26T18:10:57.321Z,9.20
2019-03-26T18:13:25.736Z,9.20
2019-03-26T18:15:54.283Z,9.20
2019-03-26T18:18:22.848Z,9.10
2019-03-26T18:20:51.418Z,9.10
2019-03-26T18:23:19.889Z,9.00
2019-03-26T18:25:48.416Z,8.90
2019-03-26T18:28:16.982Z,8.90
2019-03-26T18:30:45.739Z,8.90
2019-03-26T18:33:14.309Z,8.80
2019-03-26T18:35:44.176Z,8.80
2019-03-26T18:38:14.956Z,8.80
2019-03-26T18:40:43.767Z,8.70
2019-03-26T18:43:12.298Z,8.70
2019-03-26T18:45:40.823Z,8.60
2019-03-26T18:48:09.631Z,8.60
2019-03-26T18:50:38.164Z,8.60
2019-03-26T18:53:06.828Z,8.60
2019-03-26T18:55:35.495Z,8.60
2019-03-26T18:58:04.365Z,8.50
2019-03-26T19:00:37.742Z,8.50
2019-03-26T19:03:07.305Z,8.50
2019-03-26T19:05:35.736Z,8.40
2019-03-26T19:08:07.054Z,8.40
2019-03-26T19:10:36.692Z,8.40
2019-03-26T19:13:18.846Z,8.30
2019-03-26T19:15:35.800Z,8.30
2019-03-26T19:18:04.437Z,8.30
2019-03-26T19:20:33.250Z,8.30
2019-03-26T19:23:01.820Z,8.30
2019-03-26T19:25:30.394Z,8.30
2019-03-26T19:27:59.047Z,8.30
2019-03-26T19:30:27.668Z,8.30
2019-03-26T19:32:57.638Z,8.20
2019-03-26T19:35:26.690Z,8.20
2019-03-26T19:37:55.279Z,8.10
2019-03-26T19:40:23.792Z,8.10
2019-03-26T19:42:52.268Z,8.10
2019-03-26T19:45:21.332Z,8.10
2019-03-26T19:47:49.885Z,8.00
2019-03-26T19:50:18.638Z,8.00
2019-03-26T19:52:47.198Z,7.90
2019-03-26T19:55:15.750Z,8.00
2019-03-26T19:57:44.327Z,7.90
2019-03-26T20:00:14.821Z,7.80
2019-03-26T20:02:43.588Z,7.80
2019-03-26T20:05:12.491Z,7.90
2019-03-26T20:07:41.026Z,7.80
2019-03-26T20:10:11.593Z,7.80
2019-03-26T20:12:40.221Z,7.80
2019-03-26T20:15:09.992Z,7.70
2019-03-26T20:17:38.534Z,7.70
2019-03-26T20:20:08.552Z,7.70
2019-03-26T20:22:37.408Z,7.70
2019-03-26T20:25:08.683Z,7.70
2019-03-26T20:27:36.468Z,7.70
2019-03-26T20:30:06.968Z,7.70
2019-03-26T20:32:35.611Z,7.70
2019-03-26T20:35:07.080Z,7.70
2019-03-26T20:37:35.707Z,7.70
2019-03-26T20:40:07.397Z,7.70
2019-03-26T20:42:36.031Z,7.60
2019-03-26T20:45:09.964Z,7.60
2019-03-26T20:47:38.946Z,7.60
2019-03-26T20:50:08.489Z,7.60
2019-03-26T20:52:37.123Z,7.50
2019-03-26T20:55:07.851Z,7.50
2019-03-26T20:57:36.572Z,7.60
2019-03-26T21:00:08.176Z,7.60
2019-03-26T21:02:36.789Z,7.60
2019-03-26T21:05:07.785Z,7.50
2019-03-26T21:07:37.698Z,7.50
2019-03-26T21:10:07.290Z,7.50
2019-03-26T21:12:35.769Z,7.50
2019-03-26T21:15:08.723Z,7.40
2019-03-26T21:17:37.864Z,7.40
2019-03-26T21:20:09.110Z,7.40
2019-03-26T21:22:36.842Z,7.30
2019-03-26T21:25:06.455Z,7.30
2019-03-26T21:27:34.984Z,7.20
2019-03-26T21:30:11.458Z,7.10
2019-03-26T21:32:35.779Z,7.10
2019-03-26T21:35:05.517Z,7.10
2019-03-26T21:37:34.116Z,7.00
2019-03-26T21:40:02.707Z,6.90
2019-03-26T21:42:31.209Z,6.90
2019-03-26T21:44:59.791Z,6.90
2019-03-26T21:47:28.321Z,6.80
2019-03-26T21:49:56.819Z,6.80
2019-03-26T21:52:25.449Z,6.70
2019-03-26T21:54:53.955Z,6.70
2019-03-26T21:57:22.505Z,6.50
2019-03-26T21:59:51.207Z,6.40
2019-03-26T22:02:19.742Z,6.30
2019-03-26T22:04:48.290Z,6.10
2019-03-26T22:07:16.740Z,5.80
2019-03-26T22:09:45.337Z,5.70
2019-03-26T22:12:14.099Z,5.80
2019-03-26T22:14:42.609Z,5.90
2019-03-26T22:17:11.541Z,5.90
2019-03-26T22:19:39.995Z,5.90
2019-03-26T22:22:08.486Z,5.80
2019-03-26T22:24:38.172Z,5.70
2019-03-26T22:27:06.703Z,5.70
2019-03-26T22:29:35.190Z,5.60
2019-03-26T22:32:03.967Z,5.70
2019-03-26T22:34:32.546Z,5.70
2019-03-26T22:37:01.038Z,5.80
2019-03-26T22:39:29.594Z,5.90
2019-03-26T22:41:58.223Z,5.90
2019-03-26T22:44:31.584Z,5.90
2019-03-26T22:46:56.847Z,6.00
2019-03-26T22:49:25.491Z,6.00
2019-03-26T22:51:54.241Z,6.00
2019-03-26T22:54:22.707Z,6.00
2019-03-26T22:56:51.274Z,6.10
2019-03-26T22:59:19.800Z,6.10
2019-03-26T23:01:48.281Z,6.10
2019-03-26T23:04:19.789Z,6.10
2019-03-26T23:06:47.021Z,6.10
2019-03-26T23:09:15.603Z,6.00
2019-03-26T23:11:44.172Z,6.10
2019-03-26T23:14:12.662Z,6.10
2019-03-26T23:16:41.109Z,6.10
2019-03-26T23:19:09.748Z,6.20
2019-03-26T23:21:38.243Z,6.30
2019-03-26T23:24:07.088Z,6.30
2019-03-26T23:26:35.630Z,6.30
2019-03-26T23:29:04.300Z,6.30
2019-03-26T23:31:32.846Z,6.20
2019-03-26T23:34:01.326Z,6.30
2019-03-26T23:36:29.790Z,6.20
2019-03-26T23:38:58.326Z,6.20
2019-03-26T23:41:26.843Z,6.20
2019-03-26T23:43:55.322Z,6.20
2019-03-26T23:46:23.965Z,6.10
2019-03-26T23:48:52.520Z,6.10
2019-03-26T23:51:20.968Z,6.10
2019-03-26T23:53:49.758Z,6.10
2019-03-26T23:56:18.258Z,6.20
2019-03-26T23:58:46.763Z,6.10
